sensor_id;sensor_type;location;lat;lon;timestamp;temperature;humidity
45803;DHT22;31504;51.716;9.184;2023-06-04T00:00:07;19.90;48.40
45803;DHT22;31504;51.716;9.184;2023-06-04T00:03:08;19.90;48.30
45803;DHT22;31504;51.716;9.184;2023-06-04T00:06:08;19.90;48.50
45803;DHT22;31504;51.716;9.184;2023-06-04T00:09:09;19.90;48.50
45803;DHT22;31504;51.716;9.184;2023-06-04T00:12:09;19.90;48.70
45803;DHT22;31504;51.716;9.184;2023-06-04T00:15:10;19.90;48.50
45803;DHT22;31504;51.716;9.184;2023-06-04T00:18:10;19.90;48.80
45803;DHT22;31504;51.716;9.184;2023-06-04T00:21:13;19.90;48.90
45803;DHT22;31504;51.716;9.184;2023-06-04T00:24:14;19.90;48.60
45803;DHT22;31504;51.716;9.184;2023-06-04T00:27:14;19.90;48.80
45803;DHT22;31504;51.716;9.184;2023-06-04T00:30:15;19.90;48.60
45803;DHT22;31504;51.716;9.184;2023-06-04T00:33:15;19.90;49.00
45803;DHT22;31504;51.716;9.184;2023-06-04T00:36:16;19.90;48.70
45803;DHT22;31504;51.716;9.184;2023-06-04T00:39:16;19.90;49.00
45803;DHT22;31504;51.716;9.184;2023-06-04T00:42:17;19.90;48.90
45803;DHT22;31504;51.716;9.184;2023-06-04T00:45:17;19.90;48.90
45803;DHT22;31504;51.716;9.184;2023-06-04T00:48:21;19.90;49.10
45803;DHT22;31504;51.716;9.184;2023-06-04T00:51:21;19.90;48.90
45803;DHT22;31504;51.716;9.184;2023-06-04T00:54:22;19.90;49.10
45803;DHT22;31504;51.716;9.184;2023-06-04T00:57:22;19.90;49.00
45803;DHT22;31504;51.716;9.184;2023-06-04T01:00:23;19.90;48.90
45803;DHT22;31504;51.716;9.184;2023-06-04T01:03:23;19.90;49.20
45803;DHT22;31504;51.716;9.184;2023-06-04T01:06:28;19.90;49.10
45803;DHT22;31504;51.716;9.184;2023-06-04T01:09:30;19.90;49.30
45803;DHT22;31504;51.716;9.184;2023-06-04T01:12:31;19.90;49.10
45803;DHT22;31504;51.716;9.184;2023-06-04T01:15:31;19.90;49.40
45803;DHT22;31504;51.716;9.184;2023-06-04T01:18:31;19.90;49.30
45803;DHT22;31504;51.716;9.184;2023-06-04T01:21:36;19.90;49.20
45803;DHT22;31504;51.716;9.184;2023-06-04T01:24:38;19.90;49.30
45803;DHT22;31504;51.716;9.184;2023-06-04T01:27:41;19.90;49.20
45803;DHT22;31504;51.716;9.184;2023-06-04T01:30:46;19.90;49.30
45803;DHT22;31504;51.716;9.184;2023-06-04T01:33:47;19.90;49.30
45803;DHT22;31504;51.716;9.184;2023-06-04T01:36:47;19.90;49.80
45803;DHT22;31504;51.716;9.184;2023-06-04T01:39:48;19.90;49.30
45803;DHT22;31504;51.716;9.184;2023-06-04T01:42:48;19.90;49.20
45803;DHT22;31504;51.716;9.184;2023-06-04T01:45:49;19.90;49.20
45803;DHT22;31504;51.716;9.184;2023-06-04T01:48:49;19.90;49.70
45803;DHT22;31504;51.716;9.184;2023-06-04T01:51:50;19.90;49.60
45803;DHT22;31504;51.716;9.184;2023-06-04T01:54:50;19.90;49.60
45803;DHT22;31504;51.716;9.184;2023-06-04T01:57:52;19.90;49.40
45803;DHT22;31504;51.716;9.184;2023-06-04T02:00:53;19.90;49.50
45803;DHT22;31504;51.716;9.184;2023-06-04T02:03:54;19.90;49.50
45803;DHT22;31504;51.716;9.184;2023-06-04T02:06:55;19.90;49.40
45803;DHT22;31504;51.716;9.184;2023-06-04T02:09:56;19.90;49.60
45803;DHT22;31504;51.716;9.184;2023-06-04T02:12:58;19.90;49.50
45803;DHT22;31504;51.716;9.184;2023-06-04T02:15:59;19.90;49.50
45803;DHT22;31504;51.716;9.184;2023-06-04T02:19:00;19.90;49.60
45803;DHT22;31504;51.716;9.184;2023-06-04T02:22:01;19.90;49.80
45803;DHT22;31504;51.716;9.184;2023-06-04T02:25:01;19.90;49.50
45803;DHT22;31504;51.716;9.184;2023-06-04T02:28:01;19.90;49.60
45803;DHT22;31504;51.716;9.184;2023-06-04T02:31:02;19.90;49.60
45803;DHT22;31504;51.716;9.184;2023-06-04T02:34:03;19.90;49.50
45803;DHT22;31504;51.716;9.184;2023-06-04T02:37:04;19.90;49.70
45803;DHT22;31504;51.716;9.184;2023-06-04T02:40:05;19.90;49.70
45803;DHT22;31504;51.716;9.184;2023-06-04T02:43:06;19.90;49.60
45803;DHT22;31504;51.716;9.184;2023-06-04T02:46:07;19.90;49.60
45803;DHT22;31504;51.716;9.184;2023-06-04T02:49:08;19.90;49.60
45803;DHT22;31504;51.716;9.184;2023-06-04T02:52:09;19.90;49.70
45803;DHT22;31504;51.716;9.184;2023-06-04T02:55:09;19.90;49.80
45803;DHT22;31504;51.716;9.184;2023-06-04T02:58:12;19.90;49.60
45803;DHT22;31504;51.716;9.184;2023-06-04T03:01:17;19.90;49.70
45803;DHT22;31504;51.716;9.184;2023-06-04T03:04:17;19.90;49.80
45803;DHT22;31504;51.716;9.184;2023-06-04T03:07:18;19.90;49.70
45803;DHT22;31504;51.716;9.184;2023-06-04T03:10:23;19.90;50.00
45803;DHT22;31504;51.716;9.184;2023-06-04T03:13:23;19.90;49.70
45803;DHT22;31504;51.716;9.184;2023-06-04T03:16:23;19.90;49.70
45803;DHT22;31504;51.716;9.184;2023-06-04T03:19:24;19.90;50.00
45803;DHT22;31504;51.716;9.184;2023-06-04T03:22:24;19.90;49.90
45803;DHT22;31504;51.716;9.184;2023-06-04T03:25:25;19.90;49.90
45803;DHT22;31504;51.716;9.184;2023-06-04T03:28:26;19.90;49.90
45803;DHT22;31504;51.716;9.184;2023-06-04T03:31:26;19.90;49.90
45803;DHT22;31504;51.716;9.184;2023-06-04T03:34:27;19.90;50.10
45803;DHT22;31504;51.716;9.184;2023-06-04T03:37:31;19.90;49.90
45803;DHT22;31504;51.716;9.184;2023-06-04T03:40:32;19.90;50.10
45803;DHT22;31504;51.716;9.184;2023-06-04T03:43:33;19.90;50.00
45803;DHT22;31504;51.716;9.184;2023-06-04T03:46:33;19.90;50.20
45803;DHT22;31504;51.716;9.184;2023-06-04T03:49:34;19.90;50.20
45803;DHT22;31504;51.716;9.184;2023-06-04T03:52:35;19.90;50.80
45803;DHT22;31504;51.716;9.184;2023-06-04T03:55:35;19.90;49.90
45803;DHT22;31504;51.716;9.184;2023-06-04T03:58:37;19.90;50.10
45803;DHT22;31504;51.716;9.184;2023-06-04T04:01:37;19.90;50.20
45803;DHT22;31504;51.716;9.184;2023-06-04T04:04:38;19.90;50.10
45803;DHT22;31504;51.716;9.184;2023-06-04T04:07:39;19.90;50.10
45803;DHT22;31504;51.716;9.184;2023-06-04T04:10:39;19.90;50.20
45803;DHT22;31504;51.716;9.184;2023-06-04T04:13:40;19.90;50.10
45803;DHT22;31504;51.716;9.184;2023-06-04T04:16:41;19.90;50.00
45803;DHT22;31504;51.716;9.184;2023-06-04T04:19:41;19.90;50.10
45803;DHT22;31504;51.716;9.184;2023-06-04T04:22:41;19.90;50.20
45803;DHT22;31504;51.716;9.184;2023-06-04T04:25:42;19.90;50.10
45803;DHT22;31504;51.716;9.184;2023-06-04T04:28:44;19.90;50.00
45803;DHT22;31504;51.716;9.184;2023-06-04T04:31:44;19.90;50.10
45803;DHT22;31504;51.716;9.184;2023-06-04T04:34:51;19.90;50.10
45803;DHT22;31504;51.716;9.184;2023-06-04T04:37:52;19.90;50.00
45803;DHT22;31504;51.716;9.184;2023-06-04T04:40:52;19.90;50.20
45803;DHT22;31504;51.716;9.184;2023-06-04T04:43:53;19.90;50.20
45803;DHT22;31504;51.716;9.184;2023-06-04T04:46:54;19.90;50.40
45803;DHT22;31504;51.716;9.184;2023-06-04T04:49:55;19.90;50.30
45803;DHT22;31504;51.716;9.184;2023-06-04T04:52:55;19.90;50.20
45803;DHT22;31504;51.716;9.184;2023-06-04T04:55:56;19.90;50.30
45803;DHT22;31504;51.716;9.184;2023-06-04T04:58:57;19.90;50.20
45803;DHT22;31504;51.716;9.184;2023-06-04T05:01:57;19.90;50.10
45803;DHT22;31504;51.716;9.184;2023-06-04T05:04:58;19.90;50.00
45803;DHT22;31504;51.716;9.184;2023-06-04T05:07:58;19.90;50.20
45803;DHT22;31504;51.716;9.184;2023-06-04T05:10:59;19.90;50.20
45803;DHT22;31504;51.716;9.184;2023-06-04T05:13:59;19.90;50.20
45803;DHT22;31504;51.716;9.184;2023-06-04T05:17:00;19.90;50.20
45803;DHT22;31504;51.716;9.184;2023-06-04T05:20:00;19.90;50.10
45803;DHT22;31504;51.716;9.184;2023-06-04T05:23:04;19.90;50.30
45803;DHT22;31504;51.716;9.184;2023-06-04T05:26:05;19.90;50.20
45803;DHT22;31504;51.716;9.184;2023-06-04T05:29:05;19.90;50.80
45803;DHT22;31504;51.716;9.184;2023-06-04T05:32:06;19.90;50.20
45803;DHT22;31504;51.716;9.184;2023-06-04T05:35:07;19.90;50.20
45803;DHT22;31504;51.716;9.184;2023-06-04T05:38:08;19.90;50.20
45803;DHT22;31504;51.716;9.184;2023-06-04T05:41:08;19.90;50.20
45803;DHT22;31504;51.716;9.184;2023-06-04T05:44:09;19.90;50.30
45803;DHT22;31504;51.716;9.184;2023-06-04T05:47:09;19.90;50.20
45803;DHT22;31504;51.716;9.184;2023-06-04T05:50:10;19.90;50.20
45803;DHT22;31504;51.716;9.184;2023-06-04T05:53:11;19.90;50.40
45803;DHT22;31504;51.716;9.184;2023-06-04T05:56:11;19.90;50.20
45803;DHT22;31504;51.716;9.184;2023-06-04T05:59:12;19.90;50.20
45803;DHT22;31504;51.716;9.184;2023-06-04T06:02:12;19.90;50.20
45803;DHT22;31504;51.716;9.184;2023-06-04T06:05:13;19.90;50.10
45803;DHT22;31504;51.716;9.184;2023-06-04T06:08:14;19.90;50.30
45803;DHT22;31504;51.716;9.184;2023-06-04T06:11:15;19.90;50.20
45803;DHT22;31504;51.716;9.184;2023-06-04T06:14:15;19.90;50.20
45803;DHT22;31504;51.716;9.184;2023-06-04T06:17:16;19.90;50.20
45803;DHT22;31504;51.716;9.184;2023-06-04T06:20:17;19.90;50.20
45803;DHT22;31504;51.716;9.184;2023-06-04T06:23:18;19.90;50.20
45803;DHT22;31504;51.716;9.184;2023-06-04T06:26:21;19.90;50.20
45803;DHT22;31504;51.716;9.184;2023-06-04T06:29:23;19.90;50.20
45803;DHT22;31504;51.716;9.184;2023-06-04T06:32:23;19.90;50.20
45803;DHT22;31504;51.716;9.184;2023-06-04T06:35:23;19.90;50.20
45803;DHT22;31504;51.716;9.184;2023-06-04T06:38:24;19.90;50.20
45803;DHT22;31504;51.716;9.184;2023-06-04T06:41:24;19.90;50.20
45803;DHT22;31504;51.716;9.184;2023-06-04T06:44:26;19.90;50.20
45803;DHT22;31504;51.716;9.184;2023-06-04T06:47:26;19.90;50.20
45803;DHT22;31504;51.716;9.184;2023-06-04T06:50:27;19.90;50.20
45803;DHT22;31504;51.716;9.184;2023-06-04T06:53:27;19.90;50.20
45803;DHT22;31504;51.716;9.184;2023-06-04T06:56:28;19.90;50.10
45803;DHT22;31504;51.716;9.184;2023-06-04T06:59:28;19.90;50.10
45803;DHT22;31504;51.716;9.184;2023-06-04T07:02:28;19.90;50.20
45803;DHT22;31504;51.716;9.184;2023-06-04T07:05:29;19.90;50.30
45803;DHT22;31504;51.716;9.184;2023-06-04T07:08:30;19.90;50.20
45803;DHT22;31504;51.716;9.184;2023-06-04T07:11:31;19.90;50.10
45803;DHT22;31504;51.716;9.184;2023-06-04T07:14:32;19.90;50.10
45803;DHT22;31504;51.716;9.184;2023-06-04T07:17:32;20.00;49.80
45803;DHT22;31504;51.716;9.184;2023-06-04T07:20:32;20.00;49.50
45803;DHT22;31504;51.716;9.184;2023-06-04T07:23:33;20.10;49.10
45803;DHT22;31504;51.716;9.184;2023-06-04T07:26:33;20.20;49.10
45803;DHT22;31504;51.716;9.184;2023-06-04T07:29:34;20.20;49.10
45803;DHT22;31504;51.716;9.184;2023-06-04T07:32:34;20.30;49.00
45803;DHT22;31504;51.716;9.184;2023-06-04T07:35:35;20.30;48.90
45803;DHT22;31504;51.716;9.184;2023-06-04T07:38:35;20.30;48.80
45803;DHT22;31504;51.716;9.184;2023-06-04T07:41:36;20.30;48.70
45803;DHT22;31504;51.716;9.184;2023-06-04T07:44:36;20.40;48.60
45803;DHT22;31504;51.716;9.184;2023-06-04T07:47:37;20.30;48.50
45803;DHT22;31504;51.716;9.184;2023-06-04T07:50:37;20.40;48.50
45803;DHT22;31504;51.716;9.184;2023-06-04T07:53:38;20.40;48.40
45803;DHT22;31504;51.716;9.184;2023-06-04T07:56:38;20.40;48.50
45803;DHT22;31504;51.716;9.184;2023-06-04T07:59:39;20.40;48.50
45803;DHT22;31504;51.716;9.184;2023-06-04T08:02:39;20.40;48.40
45803;DHT22;31504;51.716;9.184;2023-06-04T08:05:40;20.40;48.40
45803;DHT22;31504;51.716;9.184;2023-06-04T08:08:44;20.50;48.40
45803;DHT22;31504;51.716;9.184;2023-06-04T08:11:45;20.50;48.40
45803;DHT22;31504;51.716;9.184;2023-06-04T08:14:46;20.40;48.50
45803;DHT22;31504;51.716;9.184;2023-06-04T08:17:46;20.50;48.40
45803;DHT22;31504;51.716;9.184;2023-06-04T08:20:47;20.50;48.40
45803;DHT22;31504;51.716;9.184;2023-06-04T08:23:47;20.50;48.40
45803;DHT22;31504;51.716;9.184;2023-06-04T08:26:48;20.50;48.40
45803;DHT22;31504;51.716;9.184;2023-06-04T08:29:48;20.50;48.30
45803;DHT22;31504;51.716;9.184;2023-06-04T08:32:49;20.50;48.40
45803;DHT22;31504;51.716;9.184;2023-06-04T08:35:49;20.50;48.40
45803;DHT22;31504;51.716;9.184;2023-06-04T08:38:49;20.50;48.40
45803;DHT22;31504;51.716;9.184;2023-06-04T08:41:53;20.60;48.30
45803;DHT22;31504;51.716;9.184;2023-06-04T08:44:54;20.60;48.20
45803;DHT22;31504;51.716;9.184;2023-06-04T08:47:56;20.60;48.30
45803;DHT22;31504;51.716;9.184;2023-06-04T08:50:57;20.60;48.30
45803;DHT22;31504;51.716;9.184;2023-06-04T08:53:59;20.80;47.90
45803;DHT22;31504;51.716;9.184;2023-06-04T08:57:00;20.90;47.60
45803;DHT22;31504;51.716;9.184;2023-06-04T09:00:01;20.90;47.20
45803;DHT22;31504;51.716;9.184;2023-06-04T09:03:03;20.80;46.50
45803;DHT22;31504;51.716;9.184;2023-06-04T09:06:04;20.80;45.80
45803;DHT22;31504;51.716;9.184;2023-06-04T09:09:06;20.80;45.20
45803;DHT22;31504;51.716;9.184;2023-06-04T09:12:10;20.80;44.00
45803;DHT22;31504;51.716;9.184;2023-06-04T09:15:11;20.80;42.90
45803;DHT22;31504;51.716;9.184;2023-06-04T09:18:12;20.80;43.20
45803;DHT22;31504;51.716;9.184;2023-06-04T09:21:12;20.80;43.10
45803;DHT22;31504;51.716;9.184;2023-06-04T09:24:13;20.80;43.00
45803;DHT22;31504;51.716;9.184;2023-06-04T09:27:14;20.80;43.10
45803;DHT22;31504;51.716;9.184;2023-06-04T09:30:14;20.70;42.60
45803;DHT22;31504;51.716;9.184;2023-06-04T09:33:15;20.80;42.50
45803;DHT22;31504;51.716;9.184;2023-06-04T09:36:16;20.80;42.20
45803;DHT22;31504;51.716;9.184;2023-06-04T09:39:17;20.80;42.20
45803;DHT22;31504;51.716;9.184;2023-06-04T09:42:17;20.70;42.10
45803;DHT22;31504;51.716;9.184;2023-06-04T09:45:28;20.70;42.00
45803;DHT22;31504;51.716;9.184;2023-06-04T09:48:32;20.80;41.80
45803;DHT22;31504;51.716;9.184;2023-06-04T09:51:32;20.70;42.10
45803;DHT22;31504;51.716;9.184;2023-06-04T09:54:36;20.80;42.10
45803;DHT22;31504;51.716;9.184;2023-06-04T09:57:37;20.80;42.50
45803;DHT22;31504;51.716;9.184;2023-06-04T10:00:40;20.80;41.90
45803;DHT22;31504;51.716;9.184;2023-06-04T10:03:42;20.70;42.00
45803;DHT22;31504;51.716;9.184;2023-06-04T10:06:44;20.80;42.00
45803;DHT22;31504;51.716;9.184;2023-06-04T10:09:45;20.80;42.00
45803;DHT22;31504;51.716;9.184;2023-06-04T10:12:50;20.70;42.20
45803;DHT22;31504;51.716;9.184;2023-06-04T10:15:50;20.70;42.20
45803;DHT22;31504;51.716;9.184;2023-06-04T10:18:52;20.80;42.30
45803;DHT22;31504;51.716;9.184;2023-06-04T10:21:52;20.80;42.20
45803;DHT22;31504;51.716;9.184;2023-06-04T10:24:53;20.80;42.00
45803;DHT22;31504;51.716;9.184;2023-06-04T10:27:53;20.80;42.10
45803;DHT22;31504;51.716;9.184;2023-06-04T10:30:54;20.80;42.10
45803;DHT22;31504;51.716;9.184;2023-06-04T10:33:58;20.80;42.10
45803;DHT22;31504;51.716;9.184;2023-06-04T10:36:58;20.80;41.90
45803;DHT22;31504;51.716;9.184;2023-06-04T10:39:59;20.80;41.60
45803;DHT22;31504;51.716;9.184;2023-06-04T10:43:06;20.80;41.60
45803;DHT22;31504;51.716;9.184;2023-06-04T10:46:13;20.80;41.80
45803;DHT22;31504;51.716;9.184;2023-06-04T10:49:14;20.80;41.80
45803;DHT22;31504;51.716;9.184;2023-06-04T10:52:15;20.80;41.10
45803;DHT22;31504;51.716;9.184;2023-06-04T10:55:15;20.80;40.80
45803;DHT22;31504;51.716;9.184;2023-06-04T10:58:16;20.80;40.60
45803;DHT22;31504;51.716;9.184;2023-06-04T11:01:27;20.80;41.00
45803;DHT22;31504;51.716;9.184;2023-06-04T11:04:28;20.90;41.10
45803;DHT22;31504;51.716;9.184;2023-06-04T11:07:29;20.90;41.00
45803;DHT22;31504;51.716;9.184;2023-06-04T11:10:31;20.80;40.80
45803;DHT22;31504;51.716;9.184;2023-06-04T11:13:32;20.80;40.70
45803;DHT22;31504;51.716;9.184;2023-06-04T11:16:33;20.90;40.80
45803;DHT22;31504;51.716;9.184;2023-06-04T11:19:37;20.90;40.70
45803;DHT22;31504;51.716;9.184;2023-06-04T11:22:37;20.90;40.40
45803;DHT22;31504;51.716;9.184;2023-06-04T11:25:38;20.90;40.70
45803;DHT22;31504;51.716;9.184;2023-06-04T11:28:38;20.90;40.70
45803;DHT22;31504;51.716;9.184;2023-06-04T11:31:41;20.90;42.80
45803;DHT22;31504;51.716;9.184;2023-06-04T11:34:42;20.90;41.30
45803;DHT22;31504;51.716;9.184;2023-06-04T11:37:52;21.00;41.00
45803;DHT22;31504;51.716;9.184;2023-06-04T11:40:59;21.00;41.00
45803;DHT22;31504;51.716;9.184;2023-06-04T11:44:09;21.00;40.90
45803;DHT22;31504;51.716;9.184;2023-06-04T11:47:11;21.00;40.70
45803;DHT22;31504;51.716;9.184;2023-06-04T11:50:12;21.10;41.00
45803;DHT22;31504;51.716;9.184;2023-06-04T11:53:12;21.00;40.80
45803;DHT22;31504;51.716;9.184;2023-06-04T11:56:13;21.00;42.10
45803;DHT22;31504;51.716;9.184;2023-06-04T11:59:14;21.00;41.20
45803;DHT22;31504;51.716;9.184;2023-06-04T12:02:15;21.10;40.80
45803;DHT22;31504;51.716;9.184;2023-06-04T12:05:16;21.20;40.10
45803;DHT22;31504;51.716;9.184;2023-06-04T12:08:19;21.10;39.70
45803;DHT22;31504;51.716;9.184;2023-06-04T12:14:27;21.20;39.30
45803;DHT22;31504;51.716;9.184;2023-06-04T12:17:27;21.20;39.30
45803;DHT22;31504;51.716;9.184;2023-06-04T12:20:35;21.20;39.00
45803;DHT22;31504;51.716;9.184;2023-06-04T12:23:36;21.20;39.10
45803;DHT22;31504;51.716;9.184;2023-06-04T12:26:37;21.20;38.50
45803;DHT22;31504;51.716;9.184;2023-06-04T12:29:38;21.10;39.20
45803;DHT22;31504;51.716;9.184;2023-06-04T12:32:38;21.00;39.20
45803;DHT22;31504;51.716;9.184;2023-06-04T12:35:39;21.10;38.60
45803;DHT22;31504;51.716;9.184;2023-06-04T12:38:39;21.30;38.00
45803;DHT22;31504;51.716;9.184;2023-06-04T12:41:44;21.30;38.00
45803;DHT22;31504;51.716;9.184;2023-06-04T12:44:44;21.20;38.00
45803;DHT22;31504;51.716;9.184;2023-06-04T12:47:45;21.20;37.80
45803;DHT22;31504;51.716;9.184;2023-06-04T12:50:46;21.20;37.70
45803;DHT22;31504;51.716;9.184;2023-06-04T12:53:47;21.20;37.60
45803;DHT22;31504;51.716;9.184;2023-06-04T12:56:48;21.20;37.80
45803;DHT22;31504;51.716;9.184;2023-06-04T12:59:48;21.20;38.20
45803;DHT22;31504;51.716;9.184;2023-06-04T13:02:49;21.20;38.30
45803;DHT22;31504;51.716;9.184;2023-06-04T13:05:49;21.10;38.60
45803;DHT22;31504;51.716;9.184;2023-06-04T13:08:51;21.10;38.80
45803;DHT22;31504;51.716;9.184;2023-06-04T13:11:52;21.10;38.50
45803;DHT22;31504;51.716;9.184;2023-06-04T13:14:52;21.20;38.30
45803;DHT22;31504;51.716;9.184;2023-06-04T13:17:53;21.30;38.30
45803;DHT22;31504;51.716;9.184;2023-06-04T13:20:53;21.30;38.20
45803;DHT22;31504;51.716;9.184;2023-06-04T13:23:54;21.30;38.10
45803;DHT22;31504;51.716;9.184;2023-06-04T13:26:56;21.30;38.10
45803;DHT22;31504;51.716;9.184;2023-06-04T13:29:58;21.20;38.10
45803;DHT22;31504;51.716;9.184;2023-06-04T13:32:58;21.20;38.30
45803;DHT22;31504;51.716;9.184;2023-06-04T13:35:59;21.20;38.80
45803;DHT22;31504;51.716;9.184;2023-06-04T13:38:59;21.20;38.60
45803;DHT22;31504;51.716;9.184;2023-06-04T13:42:00;21.30;38.60
45803;DHT22;31504;51.716;9.184;2023-06-04T13:45:01;21.20;38.90
45803;DHT22;31504;51.716;9.184;2023-06-04T13:48:01;21.10;38.80
45803;DHT22;31504;51.716;9.184;2023-06-04T13:51:06;21.20;39.00
45803;DHT22;31504;51.716;9.184;2023-06-04T13:54:06;21.20;38.90
45803;DHT22;31504;51.716;9.184;2023-06-04T13:57:06;21.30;38.70
45803;DHT22;31504;51.716;9.184;2023-06-04T14:00:11;21.40;38.60
45803;DHT22;31504;51.716;9.184;2023-06-04T14:03:13;21.30;38.80
45803;DHT22;31504;51.716;9.184;2023-06-04T14:06:14;21.30;38.60
45803;DHT22;31504;51.716;9.184;2023-06-04T14:09:15;21.40;38.40
45803;DHT22;31504;51.716;9.184;2023-06-04T14:12:15;21.50;38.40
45803;DHT22;31504;51.716;9.184;2023-06-04T14:15:18;21.40;38.50
45803;DHT22;31504;51.716;9.184;2023-06-04T14:18:18;21.40;38.30
45803;DHT22;31504;51.716;9.184;2023-06-04T14:21:19;21.30;38.40
45803;DHT22;31504;51.716;9.184;2023-06-04T14:24:21;21.40;38.20
45803;DHT22;31504;51.716;9.184;2023-06-04T14:27:21;21.40;38.10
45803;DHT22;31504;51.716;9.184;2023-06-04T14:30:22;21.30;38.30
45803;DHT22;31504;51.716;9.184;2023-06-04T14:33:24;21.30;38.40
45803;DHT22;31504;51.716;9.184;2023-06-04T14:36:25;21.30;39.10
45803;DHT22;31504;51.716;9.184;2023-06-04T14:39:26;21.30;38.70
45803;DHT22;31504;51.716;9.184;2023-06-04T14:42:26;21.30;38.40
45803;DHT22;31504;51.716;9.184;2023-06-04T14:45:27;21.30;38.90
45803;DHT22;31504;51.716;9.184;2023-06-04T14:48:27;21.20;39.20
45803;DHT22;31504;51.716;9.184;2023-06-04T14:51:28;21.20;39.30
45803;DHT22;31504;51.716;9.184;2023-06-04T14:54:28;21.20;39.30
45803;DHT22;31504;51.716;9.184;2023-06-04T14:57:29;21.20;40.10
45803;DHT22;31504;51.716;9.184;2023-06-04T15:00:30;21.30;39.40
45803;DHT22;31504;51.716;9.184;2023-06-04T15:03:31;21.40;39.50
45803;DHT22;31504;51.716;9.184;2023-06-04T15:06:32;21.40;39.50
45803;DHT22;31504;51.716;9.184;2023-06-04T15:09:32;21.40;39.10
45803;DHT22;31504;51.716;9.184;2023-06-04T15:12:33;21.40;39.40
45803;DHT22;31504;51.716;9.184;2023-06-04T15:15:36;21.30;39.20
45803;DHT22;31504;51.716;9.184;2023-06-04T15:18:36;21.30;39.20
45803;DHT22;31504;51.716;9.184;2023-06-04T15:21:37;21.40;39.20
45803;DHT22;31504;51.716;9.184;2023-06-04T15:24:37;21.40;39.10
45803;DHT22;31504;51.716;9.184;2023-06-04T15:27:38;21.40;38.70
45803;DHT22;31504;51.716;9.184;2023-06-04T15:30:39;21.40;38.70
45803;DHT22;31504;51.716;9.184;2023-06-04T15:33:39;21.40;39.00
45803;DHT22;31504;51.716;9.184;2023-06-04T15:36:40;21.40;38.80
45803;DHT22;31504;51.716;9.184;2023-06-04T15:39:40;21.30;39.10
45803;DHT22;31504;51.716;9.184;2023-06-04T15:42:41;21.20;39.20
45803;DHT22;31504;51.716;9.184;2023-06-04T15:45:41;21.20;39.50
45803;DHT22;31504;51.716;9.184;2023-06-04T15:48:42;21.30;39.70
45803;DHT22;31504;51.716;9.184;2023-06-04T15:51:42;21.20;39.90
45803;DHT22;31504;51.716;9.184;2023-06-04T15:54:43;21.20;40.50
45803;DHT22;31504;51.716;9.184;2023-06-04T15:57:43;21.20;40.60
45803;DHT22;31504;51.716;9.184;2023-06-04T16:00:44;21.20;41.20
45803;DHT22;31504;51.716;9.184;2023-06-04T16:03:44;21.10;41.10
45803;DHT22;31504;51.716;9.184;2023-06-04T16:06:45;21.10;41.50
45803;DHT22;31504;51.716;9.184;2023-06-04T16:09:45;21.20;41.60
45803;DHT22;31504;51.716;9.184;2023-06-04T16:12:46;21.20;41.30
45803;DHT22;31504;51.716;9.184;2023-06-04T16:15:46;21.30;41.40
45803;DHT22;31504;51.716;9.184;2023-06-04T16:18:47;21.30;41.40
45803;DHT22;31504;51.716;9.184;2023-06-04T16:21:48;21.30;41.70
45803;DHT22;31504;51.716;9.184;2023-06-04T16:24:49;21.20;40.90
45803;DHT22;31504;51.716;9.184;2023-06-04T16:27:50;21.20;40.90
45803;DHT22;31504;51.716;9.184;2023-06-04T16:30:51;21.20;41.10
45803;DHT22;31504;51.716;9.184;2023-06-04T16:33:51;21.20;41.00
45803;DHT22;31504;51.716;9.184;2023-06-04T16:36:52;21.10;41.10
45803;DHT22;31504;51.716;9.184;2023-06-04T16:39:52;21.20;41.20
45803;DHT22;31504;51.716;9.184;2023-06-04T16:42:53;21.10;41.10
45803;DHT22;31504;51.716;9.184;2023-06-04T16:45:53;21.10;41.10
45803;DHT22;31504;51.716;9.184;2023-06-04T16:48:54;21.10;41.30
45803;DHT22;31504;51.716;9.184;2023-06-04T16:51:54;21.10;41.00
45803;DHT22;31504;51.716;9.184;2023-06-04T16:54:56;21.10;41.00
45803;DHT22;31504;51.716;9.184;2023-06-04T16:57:57;21.10;41.00
45803;DHT22;31504;51.716;9.184;2023-06-04T17:00:57;21.10;40.80
45803;DHT22;31504;51.716;9.184;2023-06-04T17:03:58;21.20;40.90
45803;DHT22;31504;51.716;9.184;2023-06-04T17:06:58;21.10;40.80
45803;DHT22;31504;51.716;9.184;2023-06-04T17:09:59;21.10;40.80
45803;DHT22;31504;51.716;9.184;2023-06-04T17:13:00;21.10;40.80
45803;DHT22;31504;51.716;9.184;2023-06-04T17:16:00;21.10;40.80
45803;DHT22;31504;51.716;9.184;2023-06-04T17:19:01;21.10;40.80
45803;DHT22;31504;51.716;9.184;2023-06-04T17:22:01;21.10;40.80
45803;DHT22;31504;51.716;9.184;2023-06-04T17:25:04;21.10;40.90
45803;DHT22;31504;51.716;9.184;2023-06-04T17:28:05;21.10;40.80
45803;DHT22;31504;51.716;9.184;2023-06-04T17:31:06;21.20;40.90
45803;DHT22;31504;51.716;9.184;2023-06-04T17:34:06;21.10;41.00
45803;DHT22;31504;51.716;9.184;2023-06-04T17:37:06;21.10;40.80
45803;DHT22;31504;51.716;9.184;2023-06-04T17:40:07;21.10;40.90
45803;DHT22;31504;51.716;9.184;2023-06-04T17:43:08;21.10;40.50
45803;DHT22;31504;51.716;9.184;2023-06-04T17:46:08;21.10;40.20
45803;DHT22;31504;51.716;9.184;2023-06-04T17:49:09;21.10;40.20
45803;DHT22;31504;51.716;9.184;2023-06-04T17:52:11;21.10;40.10
45803;DHT22;31504;51.716;9.184;2023-06-04T17:55:11;21.10;40.20
45803;DHT22;31504;51.716;9.184;2023-06-04T17:58:11;21.10;40.20
45803;DHT22;31504;51.716;9.184;2023-06-04T18:01:12;21.10;40.00
45803;DHT22;31504;51.716;9.184;2023-06-04T18:04:12;21.10;39.90
45803;DHT22;31504;51.716;9.184;2023-06-04T18:07:13;21.10;39.70
45803;DHT22;31504;51.716;9.184;2023-06-04T18:10:14;21.10;39.40
45803;DHT22;31504;51.716;9.184;2023-06-04T18:13:14;21.10;39.40
45803;DHT22;31504;51.716;9.184;2023-06-04T18:16:15;21.10;38.90
45803;DHT22;31504;51.716;9.184;2023-06-04T18:19:16;21.10;38.90
45803;DHT22;31504;51.716;9.184;2023-06-04T18:22:17;21.00;38.70
45803;DHT22;31504;51.716;9.184;2023-06-04T18:25:18;21.10;38.80
45803;DHT22;31504;51.716;9.184;2023-06-04T18:28:18;21.10;38.70
45803;DHT22;31504;51.716;9.184;2023-06-04T18:31:19;21.10;38.80
45803;DHT22;31504;51.716;9.184;2023-06-04T18:34:19;21.00;39.10
45803;DHT22;31504;51.716;9.184;2023-06-04T18:37:23;21.10;39.40
45803;DHT22;31504;51.716;9.184;2023-06-04T18:40:23;21.00;39.40
45803;DHT22;31504;51.716;9.184;2023-06-04T18:43:24;21.00;39.50
45803;DHT22;31504;51.716;9.184;2023-06-04T18:46:25;21.10;39.60
45803;DHT22;31504;51.716;9.184;2023-06-04T18:49:26;21.10;39.80
45803;DHT22;31504;51.716;9.184;2023-06-04T18:52:26;21.10;39.80
45803;DHT22;31504;51.716;9.184;2023-06-04T18:55:27;21.10;40.00
45803;DHT22;31504;51.716;9.184;2023-06-04T18:58:27;21.10;40.00
45803;DHT22;31504;51.716;9.184;2023-06-04T19:01:28;21.00;39.90
45803;DHT22;31504;51.716;9.184;2023-06-04T19:04:28;21.00;40.10